createdAt,value
2023-02-20T00:02:39.548Z,1.30
2023-02-20T00:05:42.860Z,0.98
2023-02-20T00:08:45.341Z,1.73
2023-02-20T00:11:47.996Z,1.70
2023-02-20T00:14:50.308Z,1.48
2023-02-20T00:17:53.144Z,1.20
2023-02-20T00:20:55.446Z,1.25
2023-02-20T00:23:58.062Z,1.55
2023-02-20T00:27:00.688Z,2.23
2023-02-20T00:30:05.223Z,1.23
2023-02-20T00:33:07.572Z,1.30
2023-02-20T00:36:16.548Z,1.35
2023-02-20T00:39:19.245Z,1.23
2023-02-20T00:42:21.862Z,1.00
2023-02-20T00:45:24.173Z,1.48
2023-02-20T00:48:26.814Z,1.48
2023-02-20T00:51:43.971Z,1.15
2023-02-20T00:54:47.290Z,1.40
2023-02-20T00:57:49.631Z,1.43
2023-02-20T01:00:52.342Z,1.40
2023-02-20T01:03:54.760Z,1.50
2023-02-20T01:06:57.403Z,1.30
2023-02-20T01:09:59.692Z,1.62
2023-02-20T01:13:02.328Z,1.40
2023-02-20T01:16:05.825Z,1.45
2023-02-20T01:19:08.945Z,1.55
2023-02-20T01:22:11.387Z,1.87
2023-02-20T01:25:14.053Z,1.80
2023-02-20T01:28:16.641Z,1.40
2023-02-20T01:31:19.361Z,1.80
2023-02-20T01:34:22.133Z,1.50
2023-02-20T01:37:24.794Z,1.60
2023-02-20T01:40:28.436Z,1.70
2023-02-20T01:43:31.150Z,1.97
2023-02-20T01:46:54.562Z,1.50
2023-02-20T01:50:03.327Z,1.23
2023-02-20T01:53:13.214Z,1.60
2023-02-20T01:56:18.385Z,1.83
2023-02-20T01:59:23.459Z,1.70
2023-02-20T02:02:31.124Z,1.40
2023-02-20T02:05:36.869Z,1.92
2023-02-20T02:08:42.256Z,1.37
2023-02-20T02:11:45.683Z,1.60
2023-02-20T02:14:48.204Z,1.50
2023-02-20T02:18:02.708Z,1.73
2023-02-20T02:21:36.113Z,2.50
2023-02-20T02:25:01.070Z,2.97
2023-02-20T02:28:40.723Z,2.30
2023-02-20T02:32:01.865Z,2.40
2023-02-20T02:35:36.419Z,1.70
2023-02-20T02:39:05.500Z,1.98
2023-02-20T02:43:01.815Z,2.30
2023-02-20T02:46:13.774Z,2.20
2023-02-20T02:49:51.542Z,1.90
2023-02-20T02:52:55.452Z,2.80
2023-02-20T02:55:57.812Z,1.52
2023-02-20T02:59:00.616Z,1.77
2023-02-20T03:02:08.687Z,2.42
2023-02-20T03:05:15.657Z,2.40
2023-02-20T03:08:40.351Z,2.58
2023-02-20T03:11:44.427Z,2.03
2023-02-20T03:15:37.880Z,2.47
2023-02-20T03:18:41.615Z,2.75
2023-02-20T03:21:48.321Z,3.50
2023-02-20T03:24:59.989Z,3.03
2023-02-20T03:28:16.508Z,3.12
2023-02-20T03:31:34.554Z,4.18
2023-02-20T03:34:57.537Z,2.75
2023-02-20T03:38:24.520Z,2.27
2023-02-20T03:41:49.611Z,2.30
2023-02-20T03:44:53.367Z,2.10
2023-02-20T03:48:01.525Z,1.50
2023-02-20T03:51:12.993Z,2.17
2023-02-20T03:54:16.707Z,2.03
2023-02-20T03:57:33.808Z,2.25
2023-02-20T04:00:42.239Z,3.37
2023-02-20T04:03:48.571Z,2.37
2023-02-20T04:06:53.206Z,2.30
2023-02-20T04:10:01.577Z,2.17
2023-02-20T04:13:06.612Z,2.10
2023-02-20T04:16:10.261Z,2.40
2023-02-20T04:19:13.894Z,2.12
2023-02-20T04:22:26.826Z,2.45
2023-02-20T04:25:51.686Z,2.27
2023-02-20T04:28:54.801Z,2.12
2023-02-20T04:31:57.661Z,2.37
2023-02-20T04:35:01.245Z,1.67
2023-02-20T04:38:04.216Z,2.65
2023-02-20T04:41:06.962Z,2.60
2023-02-20T04:44:28.757Z,2.62
2023-02-20T04:47:32.726Z,2.83
2023-02-20T04:50:35.786Z,2.80
2023-02-20T04:53:38.908Z,3.78
2023-02-20T04:56:41.336Z,2.77
2023-02-20T04:59:44.622Z,2.40
2023-02-20T05:02:46.987Z,3.00
2023-02-20T05:05:49.634Z,2.70
2023-02-20T05:08:51.996Z,2.50
2023-02-20T05:11:55.058Z,2.50
2023-02-20T05:14:57.456Z,3.37
2023-02-20T05:18:00.207Z,2.78
2023-02-20T05:21:21.101Z,2.33
2023-02-20T05:24:24.346Z,2.10
2023-02-20T05:27:28.024Z,2.33
2023-02-20T05:30:30.672Z,2.55
2023-02-20T05:33:33.559Z,1.92
2023-02-20T05:36:36.344Z,3.28
2023-02-20T05:39:38.671Z,2.30
2023-02-20T05:42:41.640Z,2.33
2023-02-20T05:45:44.230Z,2.40
2023-02-20T05:48:50.625Z,3.20
2023-02-20T05:51:55.839Z,2.60
2023-02-20T05:54:58.512Z,2.20
2023-02-20T05:58:00.842Z,1.90
2023-02-20T06:01:03.697Z,2.50
2023-02-20T06:04:06.435Z,2.17
2023-02-20T06:07:10.482Z,2.08
2023-02-20T06:10:14.859Z,2.00
2023-02-20T06:13:17.181Z,2.27
2023-02-20T06:16:25.305Z,2.53
2023-02-20T06:19:27.641Z,2.62
2023-02-20T06:22:30.256Z,2.47
2023-02-20T06:25:32.565Z,2.40
2023-02-20T06:28:35.248Z,2.17
2023-02-20T06:31:37.951Z,1.95
2023-02-20T06:34:40.725Z,2.22
2023-02-20T06:37:43.123Z,3.17
2023-02-20T06:40:45.813Z,2.17
2023-02-20T06:43:48.113Z,3.43
2023-02-20T06:46:50.791Z,1.95
2023-02-20T06:49:53.124Z,2.10
2023-02-20T06:52:55.845Z,2.35
2023-02-20T06:55:58.266Z,2.37
2023-02-20T06:59:02.682Z,2.00
2023-02-20T07:02:05.106Z,2.08
2023-02-20T07:05:09.345Z,2.25
2023-02-20T07:08:11.720Z,1.95
2023-02-20T07:11:16.642Z,1.60
2023-02-20T07:14:18.954Z,2.10
2023-02-20T07:17:21.641Z,1.75
2023-02-20T07:20:24.031Z,1.80
2023-02-20T07:23:26.859Z,1.52
2023-02-20T07:26:30.282Z,1.33
2023-02-20T07:29:33.028Z,1.80
2023-02-20T07:32:35.374Z,1.80
2023-02-20T07:35:38.024Z,2.00
2023-02-20T07:38:40.659Z,2.22
2023-02-20T07:41:43.353Z,2.35
2023-02-20T07:44:50.206Z,1.83
2023-02-20T07:47:52.912Z,1.80
2023-02-20T07:50:55.264Z,1.70
2023-02-20T07:53:58.211Z,2.15
2023-02-20T07:57:00.651Z,2.22
2023-02-20T08:00:04.701Z,1.70
2023-02-20T08:03:14.442Z,2.33
2023-02-20T08:06:19.187Z,2.40
2023-02-20T08:09:21.609Z,2.62
2023-02-20T08:12:24.256Z,2.30
2023-02-20T08:15:26.727Z,2.20
2023-02-20T08:18:29.427Z,2.00
2023-02-20T08:21:31.840Z,2.12
2023-02-20T08:24:34.492Z,2.00
2023-02-20T08:27:38.482Z,2.47
2023-02-20T08:30:41.397Z,2.40
2023-02-20T08:33:43.787Z,2.10
2023-02-20T08:36:46.436Z,3.72
2023-02-20T08:39:48.839Z,2.00
2023-02-20T08:42:51.621Z,1.90
2023-02-20T08:45:54.069Z,2.30
2023-02-20T08:48:56.813Z,2.83
2023-02-20T08:51:59.194Z,2.40
2023-02-20T08:55:01.883Z,2.60
2023-02-20T08:58:04.474Z,2.42
2023-02-20T09:01:07.368Z,1.83
2023-02-20T09:04:10.897Z,1.95
2023-02-20T09:07:14.545Z,2.58
2023-02-20T09:10:20.621Z,2.22
2023-02-20T09:13:23.658Z,1.90
2023-02-20T09:16:26.088Z,1.80
2023-02-20T09:19:28.780Z,1.83
2023-02-20T09:22:31.176Z,1.98
2023-02-20T09:25:34.235Z,1.48
2023-02-20T09:28:36.680Z,2.30
2023-02-20T09:31:39.481Z,1.63
2023-02-20T09:34:41.929Z,1.30
2023-02-20T09:37:45.010Z,1.70
2023-02-20T09:40:53.043Z,1.62
2023-02-20T09:44:09.026Z,2.10
2023-02-20T09:47:50.329Z,2.47
2023-02-20T09:50:57.920Z,2.20
2023-02-20T09:54:17.665Z,2.10
2023-02-20T09:57:27.750Z,3.10
2023-02-20T10:00:35.804Z,2.90
2023-02-20T10:03:40.317Z,3.03
2023-02-20T10:06:45.210Z,3.50
2023-02-20T10:09:48.005Z,2.95
2023-02-20T10:12:53.185Z,2.67
2023-02-20T10:16:02.080Z,2.80
2023-02-20T10:19:10.584Z,2.50
2023-02-20T10:22:15.323Z,3.00
2023-02-20T10:25:43.909Z,3.65
2023-02-20T10:28:50.065Z,3.03
2023-02-20T10:32:08.150Z,3.12
2023-02-20T10:35:21.859Z,2.90
2023-02-20T10:38:30.199Z,2.90
2023-02-20T10:41:40.507Z,2.30
2023-02-20T10:44:51.903Z,3.08
2023-02-20T10:48:05.928Z,3.35
2023-02-20T10:51:33.526Z,3.30
2023-02-20T10:54:44.953Z,3.35
2023-02-20T10:57:53.956Z,3.72
2023-02-20T11:01:00.900Z,3.60
2023-02-20T11:04:15.364Z,5.03
2023-02-20T11:07:19.620Z,3.50
2023-02-20T11:10:21.956Z,3.17
2023-02-20T11:13:26.096Z,3.33
2023-02-20T11:16:33.233Z,3.25
2023-02-20T11:19:53.479Z,3.67
2023-02-20T11:22:57.128Z,3.30
2023-02-20T11:26:21.784Z,3.10
2023-02-20T11:29:25.100Z,3.50
2023-02-20T11:32:48.153Z,4.00
2023-02-20T11:35:57.397Z,3.60
2023-02-20T11:39:03.335Z,3.73
2023-02-20T11:42:12.116Z,3.40
2023-02-20T11:45:25.020Z,4.37
2023-02-20T11:48:27.529Z,3.78
2023-02-20T11:51:36.989Z,3.97
2023-02-20T11:54:40.758Z,3.93
2023-02-20T11:57:45.036Z,3.70
2023-02-20T12:00:50.105Z,3.67
2023-02-20T12:03:58.070Z,3.70
2023-02-20T12:07:00.539Z,3.80
2023-02-20T12:10:32.581Z,3.57
2023-02-20T12:13:48.378Z,3.33
2023-02-20T12:17:34.623Z,3.05
2023-02-20T12:20:44.420Z,2.83
2023-02-20T12:24:02.506Z,2.85
2023-02-20T12:27:27.655Z,2.67
2023-02-20T12:31:04.441Z,3.45
2023-02-20T12:34:28.730Z,2.95
2023-02-20T12:38:00.936Z,3.35
2023-02-20T12:41:29.724Z,2.67
2023-02-20T12:44:54.738Z,2.63
2023-02-20T12:48:22.602Z,2.87
2023-02-20T12:51:32.333Z,3.03
2023-02-20T12:54:55.705Z,3.30
2023-02-20T12:58:19.078Z,3.25
2023-02-20T13:01:38.270Z,3.30
2023-02-20T13:04:52.766Z,3.12
2023-02-20T13:08:05.070Z,3.40
2023-02-20T13:11:18.942Z,3.60
2023-02-20T13:14:55.899Z,3.83
2023-02-20T13:18:18.155Z,3.63
2023-02-20T13:21:25.192Z,3.70
2023-02-20T13:24:35.440Z,4.07
2023-02-20T13:27:37.852Z,3.22
2023-02-20T13:30:41.419Z,3.37
2023-02-20T13:33:50.186Z,2.30
2023-02-20T13:36:52.845Z,3.37
2023-02-20T13:39:55.163Z,3.20
2023-02-20T13:43:13.061Z,2.70
2023-02-20T13:46:20.497Z,2.55
2023-02-20T13:49:58.813Z,3.43
2023-02-20T13:53:03.211Z,2.60
2023-02-20T13:56:14.821Z,3.00
2023-02-20T13:59:20.509Z,2.60
2023-02-20T14:02:24.359Z,2.78
2023-02-20T14:05:31.688Z,2.50
2023-02-20T14:08:35.449Z,2.12
2023-02-20T14:11:40.343Z,2.12
2023-02-20T14:14:45.488Z,2.17
2023-02-20T14:17:51.255Z,2.22
2023-02-20T14:21:18.671Z,2.30
2023-02-20T14:24:27.414Z,2.70
2023-02-20T14:27:32.492Z,2.47
2023-02-20T14:30:35.281Z,2.47
2023-02-20T14:33:37.720Z,2.40
2023-02-20T14:37:16.878Z,2.50
2023-02-20T14:40:31.746Z,1.92
2023-02-20T14:43:35.734Z,2.50
2023-02-20T14:46:38.181Z,2.30
2023-02-20T14:49:41.561Z,2.60
2023-02-20T14:52:44.256Z,2.77
2023-02-20T14:55:50.344Z,3.87
2023-02-20T14:58:52.952Z,3.08
2023-02-20T15:01:59.040Z,2.30
2023-02-20T15:05:05.978Z,2.37
2023-02-20T15:08:17.648Z,3.03
2023-02-20T15:11:20.051Z,2.47
2023-02-20T15:14:32.046Z,2.30
2023-02-20T15:17:37.636Z,2.65
2023-02-20T15:20:43.026Z,1.95
2023-02-20T15:23:47.548Z,2.27
2023-02-20T15:26:50.219Z,2.28
2023-02-20T15:30:28.382Z,2.10
2023-02-20T15:33:34.541Z,2.03
2023-02-20T15:36:37.135Z,3.17
2023-02-20T15:39:41.121Z,4.07
2023-02-20T15:42:43.633Z,5.05
2023-02-20T15:45:47.354Z,4.95
2023-02-20T15:48:49.780Z,5.30
2023-02-20T15:51:56.185Z,4.95
2023-02-20T15:55:01.879Z,4.97
2023-02-20T15:58:22.690Z,4.87
2023-02-20T16:01:26.210Z,5.68
2023-02-20T16:04:28.952Z,5.72
2023-02-20T16:07:31.405Z,5.57
2023-02-20T16:10:34.189Z,5.70
2023-02-20T16:13:40.057Z,6.43
2023-02-20T16:16:45.105Z,6.07
2023-02-20T16:19:47.557Z,5.32
2023-02-20T16:22:51.199Z,5.87
2023-02-20T16:25:53.555Z,6.17
2023-02-20T16:29:02.018Z,6.85
2023-02-20T16:32:04.505Z,6.18
2023-02-20T16:35:12.158Z,6.40
2023-02-20T16:38:15.051Z,6.45
2023-02-20T16:41:17.788Z,6.10
2023-02-20T16:44:40.248Z,6.22
2023-02-20T16:47:43.529Z,7.28
2023-02-20T16:50:51.622Z,6.32
2023-02-20T16:53:54.584Z,6.62
2023-02-20T16:56:57.035Z,5.60
2023-02-20T17:00:00.946Z,6.32
2023-02-20T17:03:04.581Z,6.82
2023-02-20T17:06:07.454Z,10.25
2023-02-20T17:09:10.006Z,7.07
2023-02-20T17:12:16.115Z,6.67
2023-02-20T17:15:20.703Z,7.30
2023-02-20T17:18:23.354Z,7.50
2023-02-20T17:21:25.779Z,6.50
2023-02-20T17:24:28.400Z,7.65
2023-02-20T17:27:30.851Z,7.70
2023-02-20T17:30:33.649Z,7.43
2023-02-20T17:33:35.969Z,8.20
2023-02-20T17:36:47.886Z,8.18
2023-02-20T17:39:50.209Z,8.48
2023-02-20T17:42:52.872Z,8.20
2023-02-20T17:45:55.277Z,9.57
2023-02-20T17:48:57.935Z,8.82
2023-02-20T17:52:00.398Z,8.27
2023-02-20T17:55:03.117Z,8.73
2023-02-20T17:58:06.416Z,8.63
2023-02-20T18:01:09.993Z,9.07
2023-02-20T18:04:13.154Z,10.00
2023-02-20T18:07:17.493Z,9.70
2023-02-20T18:10:20.691Z,9.23
2023-02-20T18:13:23.179Z,8.80
2023-02-20T18:16:27.107Z,8.45
2023-02-20T18:19:29.605Z,8.20
2023-02-20T18:22:32.229Z,8.52
2023-02-20T18:25:40.473Z,8.60
2023-02-20T18:28:44.076Z,7.93
2023-02-20T18:31:47.276Z,8.60
2023-02-20T18:34:50.031Z,8.18
2023-02-20T18:37:52.424Z,8.30
2023-02-20T18:40:55.206Z,8.32
2023-02-20T18:43:57.612Z,8.90
2023-02-20T18:47:00.646Z,8.60
2023-02-20T18:50:03.224Z,8.80
2023-02-20T18:53:05.854Z,8.85
2023-02-20T18:56:13.106Z,8.23
2023-02-20T18:59:16.985Z,8.33
2023-02-20T19:02:19.389Z,7.45
2023-02-20T19:05:23.221Z,7.75
2023-02-20T19:08:25.590Z,6.50
2023-02-20T19:11:28.987Z,6.18
2023-02-20T19:14:31.379Z,5.57
2023-02-20T19:17:34.716Z,5.43
2023-02-20T19:20:37.100Z,5.70
2023-02-20T19:23:40.933Z,6.95
2023-02-20T19:26:43.450Z,6.07
2023-02-20T19:29:46.229Z,4.30
2023-02-20T19:32:48.734Z,5.00
2023-02-20T19:35:51.881Z,5.62
2023-02-20T19:38:54.246Z,5.22
2023-02-20T19:41:57.014Z,5.45
2023-02-20T19:44:59.333Z,5.53
2023-02-20T19:48:02.033Z,4.53
2023-02-20T19:51:08.449Z,5.30
2023-02-20T19:54:11.095Z,5.07
2023-02-20T19:57:14.390Z,5.28
2023-02-20T20:00:19.367Z,5.07
2023-02-20T20:03:22.340Z,4.57
2023-02-20T20:06:26.944Z,6.37
2023-02-20T20:09:36.549Z,5.30
2023-02-20T20:12:48.779Z,5.80
2023-02-20T20:15:51.451Z,4.87
2023-02-20T20:18:54.463Z,5.93
2023-02-20T20:21:57.081Z,5.97
2023-02-20T20:24:59.624Z,5.90
2023-02-20T20:28:04.553Z,6.28
2023-02-20T20:31:06.907Z,5.97
2023-02-20T20:34:09.948Z,6.53
2023-02-20T20:37:12.307Z,6.47
2023-02-20T20:40:16.868Z,6.62
2023-02-20T20:43:19.360Z,6.43
2023-02-20T20:46:22.120Z,6.53
2023-02-20T20:49:24.417Z,6.40
2023-02-20T20:52:28.565Z,7.40
2023-02-20T20:55:31.047Z,6.68
2023-02-20T20:58:33.732Z,7.82
2023-02-20T21:01:36.092Z,7.37
2023-02-20T21:04:40.814Z,7.03
2023-02-20T21:07:44.184Z,7.18
2023-02-20T21:10:47.029Z,7.37
2023-02-20T21:13:49.417Z,7.35
2023-02-20T21:16:52.072Z,6.87
2023-02-20T21:19:54.463Z,7.07
2023-02-20T21:22:59.055Z,7.45
2023-02-20T21:26:01.386Z,7.80
2023-02-20T21:29:04.678Z,8.23
2023-02-20T21:32:07.462Z,8.03
2023-02-20T21:35:12.270Z,7.25
2023-02-20T21:38:14.667Z,8.00
2023-02-20T21:41:40.900Z,8.15
2023-02-20T21:44:47.671Z,8.32
2023-02-20T21:47:50.357Z,7.63
2023-02-20T21:50:52.671Z,7.20
2023-02-20T21:53:55.347Z,8.45
2023-02-20T21:56:58.804Z,7.85
2023-02-20T22:00:01.639Z,7.80
2023-02-20T22:03:04.426Z,8.10
2023-02-20T22:06:07.028Z,7.45
2023-02-20T22:09:28.238Z,8.80
2023-02-20T22:12:50.766Z,8.43
2023-02-20T22:16:11.742Z,8.63
2023-02-20T22:19:32.778Z,7.47
2023-02-20T22:22:55.679Z,8.13
2023-02-20T22:26:17.206Z,8.40
2023-02-20T22:29:38.250Z,7.20
2023-02-20T22:32:59.761Z,7.55
2023-02-20T22:36:21.201Z,7.23
2023-02-20T22:39:42.425Z,8.27
2023-02-20T22:43:03.520Z,7.62
2023-02-20T22:46:25.971Z,7.12
2023-02-20T22:49:48.399Z,7.93
2023-02-20T22:53:09.841Z,7.97
2023-02-20T22:56:38.658Z,7.20
2023-02-20T23:00:00.310Z,6.12
2023-02-20T23:03:21.300Z,6.37
2023-02-20T23:06:42.745Z,6.35
2023-02-20T23:10:03.602Z,6.40
2023-02-20T23:13:25.351Z,6.45
2023-02-20T23:16:46.298Z,6.68
2023-02-20T23:20:07.508Z,7.10
2023-02-20T23:23:29.890Z,7.87
2023-02-20T23:26:52.366Z,8.30
2023-02-20T23:30:13.442Z,7.82
2023-02-20T23:33:34.526Z,9.00
2023-02-20T23:36:55.448Z,9.85
2023-02-20T23:40:21.265Z,9.63
2023-02-20T23:43:47.890Z,9.53
2023-02-20T23:47:09.369Z,8.63
2023-02-20T23:50:30.320Z,8.85
2023-02-20T23:53:56.172Z,8.85
2023-02-20T23:57:17.287Z,9.00
